createdAt,value
2019-05-14T00:00:52.732Z,96.10
2019-05-14T00:01:56.104Z,96.50
2019-05-14T00:03:02.363Z,96.10
2019-05-14T00:04:07.065Z,96.10
2019-05-14T00:05:12.204Z,96.10
2019-05-14T00:06:17.356Z,96.10
2019-05-14T00:07:22.307Z,96.20
2019-05-14T00:08:27.499Z,96.50
2019-05-14T00:09:32.296Z,96.20
2019-05-14T00:10:37.431Z,96.20
2019-05-14T00:11:42.174Z,96.30
2019-05-14T00:12:47.372Z,96.20
2019-05-14T00:13:52.116Z,96.20
2019-05-14T00:14:57.311Z,96.20
2019-05-14T00:16:01.847Z,96.30
2019-05-14T00:17:08.319Z,96.70
2019-05-14T00:18:12.743Z,96.70
2019-05-14T00:19:17.646Z,96.80
2019-05-14T00:20:22.662Z,96.70
2019-05-14T00:21:27.598Z,96.80
2019-05-14T00:22:32.086Z,96.80
2019-05-14T00:23:37.028Z,96.90
2019-05-14T00:24:41.867Z,96.90
2019-05-14T00:25:46.903Z,97.00
2019-05-14T00:26:51.816Z,96.90
2019-05-14T00:27:56.820Z,96.80
2019-05-14T00:29:01.652Z,96.80
2019-05-14T00:30:07.332Z,96.90
2019-05-14T00:31:12.201Z,97.10
2019-05-14T00:32:17.209Z,97.20
2019-05-14T00:33:22.502Z,97.70
2019-05-14T00:34:27.756Z,97.40
2019-05-14T00:35:35.358Z,97.60
2019-05-14T00:36:41.409Z,97.70
2019-05-14T00:37:45.173Z,97.60
2019-05-14T00:38:51.297Z,97.60
2019-05-14T00:39:56.097Z,97.50
2019-05-14T00:41:01.989Z,97.50
2019-05-14T00:42:06.717Z,97.70
2019-05-14T00:43:11.621Z,97.60
2019-05-14T00:44:15.970Z,97.60
2019-05-14T00:45:21.806Z,97.80
2019-05-14T00:46:26.409Z,97.90
2019-05-14T00:47:31.260Z,97.90
2019-05-14T00:48:35.890Z,98.00
2019-05-14T00:49:42.487Z,98.10
2019-05-14T00:50:46.874Z,98.20
2019-05-14T00:51:52.089Z,98.40
2019-05-14T00:52:56.669Z,98.50
2019-05-14T00:54:01.827Z,98.70
2019-05-14T00:55:06.737Z,98.90
2019-05-14T00:56:11.693Z,99.00
2019-05-14T00:57:16.055Z,99.20
2019-05-14T00:58:21.746Z,99.30
2019-05-14T00:59:26.344Z,99.30
2019-05-14T01:00:31.443Z,99.30
2019-05-14T01:01:35.879Z,99.40
2019-05-14T01:02:41.521Z,99.30
2019-05-14T01:03:46.258Z,99.30
2019-05-14T01:04:51.750Z,99.20
2019-05-14T01:05:56.289Z,99.20
2019-05-14T01:07:01.704Z,99.10
2019-05-14T01:08:06.149Z,99.20
2019-05-14T01:09:11.410Z,99.20
2019-05-14T01:10:16.864Z,99.20
2019-05-14T01:11:22.901Z,99.40
2019-05-14T01:12:27.286Z,99.30
2019-05-14T01:13:32.160Z,99.30
2019-05-14T01:14:36.664Z,99.40
2019-05-14T01:15:41.643Z,99.30
2019-05-14T01:16:46.076Z,99.30
2019-05-14T01:17:51.564Z,99.30
2019-05-14T01:18:56.398Z,99.50
2019-05-14T01:20:03.125Z,99.80
2019-05-14T01:21:07.854Z,99.70
2019-05-14T01:22:13.906Z,99.80
2019-05-14T01:23:18.284Z,99.90
2019-05-14T01:24:23.180Z,99.90
2019-05-14T01:25:27.853Z,99.90
2019-05-14T01:26:32.828Z,99.90
2019-05-14T01:27:37.182Z,99.90
2019-05-14T01:28:42.027Z,99.90
2019-05-14T01:29:46.367Z,99.90
2019-05-14T01:30:52.023Z,99.90
2019-05-14T01:31:57.594Z,99.90
2019-05-14T01:33:02.480Z,99.90
2019-05-14T01:34:06.804Z,99.90
2019-05-14T01:35:13.179Z,99.90
2019-05-14T01:36:17.526Z,99.90
2019-05-14T01:37:22.423Z,99.90
2019-05-14T01:38:26.816Z,99.90
2019-05-14T01:39:32.204Z,99.90
2019-05-14T01:40:36.758Z,99.90
2019-05-14T01:41:42.259Z,99.90
2019-05-14T01:42:47.005Z,99.90
2019-05-14T01:43:51.873Z,99.90
2019-05-14T01:44:56.317Z,99.90
2019-05-14T01:46:01.867Z,99.90
2019-05-14T01:47:06.639Z,99.90
2019-05-14T01:48:11.808Z,99.90
2019-05-14T01:49:16.267Z,99.90
2019-05-14T01:50:21.565Z,99.90
2019-05-14T01:51:26.091Z,99.90
2019-05-14T01:52:31.805Z,99.90
2019-05-14T01:53:36.629Z,99.90
2019-05-14T01:54:42.755Z,99.90
2019-05-14T01:55:47.464Z,99.90
2019-05-14T01:56:54.013Z,99.90
2019-05-14T01:57:58.350Z,99.90
2019-05-14T01:59:03.266Z,99.90
2019-05-14T02:00:08.715Z,99.90
2019-05-14T02:01:13.628Z,99.90
2019-05-14T02:02:17.934Z,99.90
2019-05-14T02:03:23.204Z,99.90
2019-05-14T02:04:27.512Z,99.90
2019-05-14T02:05:32.461Z,99.90
2019-05-14T02:06:36.994Z,99.90
2019-05-14T02:07:42.182Z,99.90
2019-05-14T02:08:46.677Z,99.90
2019-05-14T02:09:51.954Z,99.90
2019-05-14T02:10:56.524Z,99.90
2019-05-14T02:12:02.206Z,99.90
2019-05-14T02:13:06.937Z,99.90
2019-05-14T02:14:11.948Z,99.90
2019-05-14T02:15:16.695Z,99.90
2019-05-14T02:16:21.949Z,99.90
2019-05-14T02:17:26.500Z,99.90
2019-05-14T02:18:33.193Z,99.90
2019-05-14T02:19:37.626Z,99.90
2019-05-14T02:20:43.271Z,99.90
2019-05-14T02:21:51.248Z,99.90
2019-05-14T02:22:56.207Z,99.90
2019-05-14T02:24:02.017Z,99.90
2019-05-14T02:25:07.890Z,99.90
2019-05-14T02:26:12.568Z,99.90
2019-05-14T02:27:17.459Z,99.90
2019-05-14T02:28:22.158Z,99.90
2019-05-14T02:29:27.295Z,99.90
2019-05-14T02:30:45.746Z,99.90
2019-05-14T02:31:39.297Z,99.90
2019-05-14T02:32:43.840Z,99.90
2019-05-14T02:33:50.314Z,99.90
2019-05-14T02:34:54.867Z,99.90
2019-05-14T02:36:00.295Z,99.90
2019-05-14T02:37:04.894Z,99.90
2019-05-14T02:38:10.884Z,99.90
2019-05-14T02:39:15.376Z,99.90
2019-05-14T02:40:20.656Z,99.90
2019-05-14T02:41:29.660Z,99.90
2019-05-14T02:42:33.291Z,99.90
2019-05-14T02:43:40.660Z,99.90
2019-05-14T02:44:44.439Z,99.90
2019-05-14T02:46:04.766Z,99.90
2019-05-14T02:46:55.667Z,99.90
2019-05-14T02:48:00.605Z,99.90
2019-05-14T02:49:05.789Z,99.90
2019-05-14T02:50:10.425Z,99.90
2019-05-14T02:51:19.547Z,99.90
2019-05-14T02:52:25.420Z,99.90
2019-05-14T02:53:30.383Z,99.90
2019-05-14T02:54:34.790Z,99.90
2019-05-14T02:55:39.690Z,99.90
2019-05-14T02:56:44.007Z,99.90
2019-05-14T02:57:50.123Z,99.90
2019-05-14T02:58:55.101Z,99.90
2019-05-14T03:00:00.225Z,99.90
2019-05-14T03:01:04.721Z,99.90
2019-05-14T03:02:10.377Z,99.90
2019-05-14T03:03:15.402Z,99.90
2019-05-14T03:04:20.338Z,99.90
2019-05-14T03:05:24.827Z,99.90
2019-05-14T03:06:29.869Z,99.90
2019-05-14T03:07:34.307Z,99.90
2019-05-14T03:08:39.343Z,99.90
2019-05-14T03:09:43.701Z,99.90
2019-05-14T03:10:50.366Z,99.90
2019-05-14T03:11:54.633Z,99.90
2019-05-14T03:12:59.778Z,99.90
2019-05-14T03:14:04.613Z,99.90
2019-05-14T03:15:09.994Z,99.90
2019-05-14T03:16:25.930Z,99.90
2019-05-14T03:17:22.797Z,99.90
2019-05-14T03:18:29.660Z,99.90
2019-05-14T03:19:34.956Z,99.90
2019-05-14T03:20:39.422Z,99.90
2019-05-14T03:21:44.394Z,99.90
2019-05-14T03:23:02.737Z,99.90
2019-05-14T03:23:55.894Z,99.90
2019-05-14T03:25:00.450Z,99.90
2019-05-14T03:26:05.349Z,99.90
2019-05-14T03:27:10.170Z,99.90
2019-05-14T03:28:15.310Z,99.90
2019-05-14T03:29:25.546Z,99.90
2019-05-14T03:30:32.324Z,99.90
2019-05-14T03:31:34.270Z,99.90
2019-05-14T03:32:42.368Z,99.90
2019-05-14T03:33:45.231Z,99.90
2019-05-14T03:34:53.166Z,99.90
2019-05-14T03:36:07.464Z,99.90
2019-05-14T03:37:04.606Z,99.90
2019-05-14T03:38:09.603Z,99.90
2019-05-14T03:39:15.015Z,99.90
2019-05-14T03:40:19.620Z,99.90
2019-05-14T03:41:24.683Z,99.90
2019-05-14T03:42:29.369Z,99.90
2019-05-14T03:43:34.389Z,99.90
2019-05-14T03:44:39.976Z,99.90
2019-05-14T03:45:45.206Z,99.90
2019-05-14T03:46:55.156Z,99.90
2019-05-14T03:47:58.916Z,99.90
2019-05-14T03:49:03.534Z,99.90
2019-05-14T03:50:10.165Z,99.90
2019-05-14T03:51:15.392Z,99.90
2019-05-14T03:52:20.466Z,99.90
2019-05-14T03:53:24.795Z,99.90
2019-05-14T03:54:31.218Z,99.90
2019-05-14T03:55:35.636Z,99.90
2019-05-14T03:56:40.552Z,99.90
2019-05-14T03:57:44.898Z,99.90
2019-05-14T03:58:49.877Z,99.90
2019-05-14T03:59:54.216Z,99.90
2019-05-14T04:01:02.305Z,99.90
2019-05-14T04:02:09.748Z,99.90
2019-05-14T04:03:14.160Z,99.90
2019-05-14T04:04:19.573Z,99.90
2019-05-14T04:05:24.925Z,99.90
2019-05-14T04:06:30.510Z,99.90
2019-05-14T04:07:39.378Z,99.90
2019-05-14T04:08:44.333Z,99.90
2019-05-14T04:09:50.644Z,99.90
2019-05-14T04:10:59.096Z,99.80
2019-05-14T04:12:05.006Z,99.50
2019-05-14T04:13:12.299Z,99.40
2019-05-14T04:14:20.135Z,99.40
2019-05-14T04:15:29.862Z,99.20
2019-05-14T04:16:39.875Z,99.20
2019-05-14T04:17:45.546Z,99.00
2019-05-14T04:18:51.219Z,98.90
2019-05-14T04:19:59.988Z,98.40
2019-05-14T04:21:09.945Z,98.20
2019-05-14T04:22:14.840Z,98.00
2019-05-14T04:23:21.245Z,97.80
2019-05-14T04:24:29.616Z,97.10
2019-05-14T04:25:38.931Z,96.50
2019-05-14T04:27:00.972Z,95.80
2019-05-14T04:27:54.907Z,94.00
2019-05-14T04:29:01.217Z,93.00
2019-05-14T04:30:09.416Z,92.30
2019-05-14T04:31:14.559Z,91.10
2019-05-14T04:32:21.603Z,90.60
2019-05-14T04:33:30.369Z,89.30
2019-05-14T04:34:34.547Z,88.70
2019-05-14T04:35:40.201Z,86.10
2019-05-14T04:36:45.629Z,84.10
2019-05-14T04:37:50.284Z,82.10
2019-05-14T04:38:55.679Z,80.30
2019-05-14T04:40:00.237Z,80.30
2019-05-14T04:41:05.199Z,78.70
2019-05-14T04:42:10.018Z,79.00
2019-05-14T04:43:15.124Z,78.30
2019-05-14T04:44:19.763Z,76.10
2019-05-14T04:45:24.709Z,75.10
2019-05-14T04:46:30.218Z,75.40
2019-05-14T04:47:37.391Z,75.10
2019-05-14T04:48:43.229Z,75.40
2019-05-14T04:49:50.489Z,76.00
2019-05-14T04:50:54.487Z,75.90
2019-05-14T04:51:59.736Z,76.30
2019-05-14T04:53:04.341Z,77.60
2019-05-14T04:54:09.785Z,78.40
2019-05-14T04:55:14.594Z,80.00
2019-05-14T04:56:19.948Z,81.10
2019-05-14T04:57:25.633Z,81.80
2019-05-14T04:58:30.843Z,81.40
2019-05-14T04:59:35.239Z,81.10
2019-05-14T05:00:40.278Z,80.10
2019-05-14T05:01:44.736Z,78.20
2019-05-14T05:02:50.123Z,77.10
2019-05-14T05:03:54.677Z,76.80
2019-05-14T05:04:59.764Z,74.80
2019-05-14T05:06:04.181Z,73.10
2019-05-14T05:07:10.083Z,71.60
2019-05-14T05:08:14.786Z,70.80
2019-05-14T05:09:20.239Z,70.30
2019-05-14T05:10:24.867Z,69.80
2019-05-14T05:11:29.862Z,69.60
2019-05-14T05:12:34.269Z,69.60
2019-05-14T05:13:39.941Z,69.10
2019-05-14T05:14:45.210Z,68.90
2019-05-14T05:15:50.185Z,67.80
2019-05-14T05:16:54.522Z,66.70
2019-05-14T05:17:59.394Z,66.20
2019-05-14T05:19:03.742Z,66.10
2019-05-14T05:20:10.001Z,66.50
2019-05-14T05:21:15.105Z,66.10
2019-05-14T05:22:20.009Z,65.50
2019-05-14T05:23:24.356Z,65.30
2019-05-14T05:24:29.418Z,65.40
2019-05-14T05:25:34.014Z,64.80
2019-05-14T05:26:39.378Z,65.80
2019-05-14T05:27:43.814Z,64.10
2019-05-14T05:29:02.284Z,64.90
2019-05-14T05:29:54.900Z,63.50
2019-05-14T05:31:00.134Z,62.90
2019-05-14T05:32:04.539Z,61.40
2019-05-14T05:33:09.514Z,61.90
2019-05-14T05:34:14.017Z,61.80
2019-05-14T05:35:18.964Z,60.70
2019-05-14T05:36:23.675Z,60.40
2019-05-14T05:37:29.372Z,60.50
2019-05-14T05:38:33.922Z,60.50
2019-05-14T05:39:38.965Z,60.00
2019-05-14T05:40:43.338Z,58.90
2019-05-14T05:41:49.217Z,58.60
2019-05-14T05:42:55.039Z,58.20
2019-05-14T05:43:59.920Z,57.60
2019-05-14T05:45:04.483Z,57.90
2019-05-14T05:46:09.431Z,57.60
2019-05-14T05:47:14.148Z,59.20
2019-05-14T05:48:19.098Z,60.40
2019-05-14T05:49:23.670Z,62.70
2019-05-14T05:50:28.893Z,63.90
2019-05-14T05:51:33.310Z,63.80
2019-05-14T05:52:38.841Z,63.30
2019-05-14T05:53:43.376Z,62.70
2019-05-14T05:54:49.080Z,62.40
2019-05-14T05:55:53.621Z,61.60
2019-05-14T05:56:59.783Z,62.00
2019-05-14T05:58:04.128Z,62.00
2019-05-14T05:59:09.712Z,60.90
2019-05-14T06:00:14.736Z,61.10
2019-05-14T06:01:19.921Z,61.00
2019-05-14T06:03:30.365Z,58.40
2019-05-14T06:04:35.581Z,57.90
2019-05-14T06:05:39.925Z,57.80
2019-05-14T06:06:48.051Z,57.10
2019-05-14T06:07:51.972Z,56.80
2019-05-14T06:08:58.321Z,57.30
2019-05-14T06:10:03.411Z,57.80
2019-05-14T06:11:08.581Z,57.80
2019-05-14T06:12:13.332Z,58.00
2019-05-14T06:13:18.422Z,56.30
2019-05-14T06:14:22.904Z,54.80
2019-05-14T06:15:44.186Z,54.00
2019-05-14T06:16:34.403Z,53.60
2019-05-14T06:17:39.504Z,53.50
2019-05-14T06:18:44.090Z,53.50
2019-05-14T06:19:49.031Z,52.70
2019-05-14T06:20:53.422Z,52.10
2019-05-14T06:21:59.950Z,51.20
2019-05-14T06:23:04.503Z,49.30
2019-05-14T06:24:09.617Z,49.00
2019-05-14T06:25:14.461Z,48.20
2019-05-14T06:26:19.701Z,48.90
2019-05-14T06:27:24.348Z,48.50
2019-05-14T06:28:33.298Z,48.60
2019-05-14T06:29:38.126Z,47.10
2019-05-14T06:30:42.853Z,46.90
2019-05-14T06:31:49.374Z,46.60
2019-05-14T06:32:53.826Z,46.40
2019-05-14T06:33:59.116Z,46.20
2019-05-14T06:35:04.522Z,45.50
2019-05-14T06:36:09.006Z,45.90
2019-05-14T06:37:14.402Z,45.30
2019-05-14T06:38:18.812Z,45.50
2019-05-14T06:39:23.752Z,45.00
2019-05-14T06:40:28.671Z,44.50
2019-05-14T06:41:33.712Z,44.10
2019-05-14T06:42:39.357Z,43.40
2019-05-14T06:43:44.859Z,43.30
2019-05-14T06:44:49.516Z,43.90
2019-05-14T06:45:54.583Z,43.90
2019-05-14T06:46:59.180Z,45.30
2019-05-14T06:48:04.164Z,44.90
2019-05-14T06:49:09.094Z,44.60
2019-05-14T06:50:14.860Z,44.40
2019-05-14T06:52:23.764Z,44.50
2019-05-14T06:53:29.313Z,44.10
2019-05-14T06:54:33.795Z,44.30
2019-05-14T06:55:39.407Z,44.20
2019-05-14T06:56:43.933Z,45.30
2019-05-14T06:57:48.890Z,45.60
2019-05-14T06:58:53.206Z,45.70
2019-05-14T06:59:58.912Z,45.70
2019-05-14T07:01:03.460Z,45.70
2019-05-14T07:02:08.843Z,45.30
2019-05-14T07:03:13.716Z,45.00
2019-05-14T07:04:18.704Z,44.30
2019-05-14T07:05:23.230Z,43.60
2019-05-14T07:06:29.090Z,42.20
2019-05-14T07:07:33.797Z,41.60
2019-05-14T07:08:39.189Z,40.60
2019-05-14T07:09:43.801Z,40.40
2019-05-14T07:10:48.769Z,39.80
2019-05-14T07:11:53.161Z,39.70
2019-05-14T07:12:59.266Z,40.50
2019-05-14T07:14:04.054Z,40.10
2019-05-14T07:15:09.531Z,39.80
2019-05-14T07:16:14.505Z,39.50
2019-05-14T07:17:19.399Z,39.70
2019-05-14T07:18:24.007Z,39.50
2019-05-14T07:19:29.640Z,38.50
2019-05-14T07:20:34.156Z,38.30
2019-05-14T07:21:40.401Z,38.30
2019-05-14T07:22:44.754Z,38.70
2019-05-14T07:23:49.789Z,38.30
2019-05-14T07:24:54.430Z,39.30
2019-05-14T07:25:59.375Z,39.70
2019-05-14T07:27:03.984Z,39.40
2019-05-14T07:28:09.037Z,39.50
2019-05-14T07:29:13.714Z,39.20
2019-05-14T07:30:19.422Z,38.40
2019-05-14T07:31:23.937Z,38.80
2019-05-14T07:32:28.929Z,38.50
2019-05-14T07:33:33.301Z,38.40
2019-05-14T07:34:38.931Z,37.90
2019-05-14T07:35:43.617Z,37.30
2019-05-14T07:36:49.104Z,37.30
2019-05-14T07:37:53.646Z,37.50
2019-05-14T07:39:00.283Z,37.20
2019-05-14T07:40:08.329Z,36.40
2019-05-14T07:41:12.670Z,35.70
2019-05-14T07:42:18.350Z,35.40
2019-05-14T07:43:23.612Z,35.00
2019-05-14T07:44:29.662Z,33.20
2019-05-14T07:45:34.836Z,33.00
2019-05-14T07:46:39.272Z,33.00
2019-05-14T07:47:44.161Z,33.90
2019-05-14T07:49:03.876Z,33.60
2019-05-14T07:49:55.170Z,33.40
2019-05-14T07:51:00.138Z,33.60
2019-05-14T07:52:05.325Z,33.90
2019-05-14T07:53:09.916Z,34.80
2019-05-14T07:54:15.048Z,36.00
2019-05-14T07:55:19.399Z,36.40
2019-05-14T07:56:24.428Z,36.50
2019-05-14T07:57:28.859Z,35.70
2019-05-14T07:58:33.827Z,35.80
2019-05-14T07:59:38.339Z,35.00
2019-05-14T08:00:43.416Z,35.70
2019-05-14T08:01:49.081Z,36.00
2019-05-14T08:02:54.191Z,36.70
2019-05-14T08:04:00.202Z,36.70
2019-05-14T08:05:05.812Z,35.50
2019-05-14T08:06:10.292Z,34.20
2019-05-14T08:07:17.817Z,34.00
2019-05-14T08:08:21.516Z,34.30
2019-05-14T08:09:28.247Z,35.30
2019-05-14T08:10:32.598Z,35.40
2019-05-14T08:11:38.757Z,35.40
2019-05-14T08:12:43.381Z,35.80
2019-05-14T08:13:49.369Z,36.10
2019-05-14T08:15:10.852Z,36.40
2019-05-14T08:16:00.808Z,37.00
2019-05-14T08:17:05.312Z,37.30
2019-05-14T08:18:10.594Z,37.00
2019-05-14T08:19:24.192Z,37.00
2019-05-14T08:20:22.103Z,36.50
2019-05-14T08:21:28.302Z,36.40
2019-05-14T08:22:33.285Z,35.40
2019-05-14T08:23:39.203Z,35.00
2019-05-14T08:24:44.571Z,35.10
2019-05-14T08:25:49.009Z,34.40
2019-05-14T08:26:54.043Z,34.10
2019-05-14T08:27:58.725Z,34.40
2019-05-14T08:29:03.725Z,35.30
2019-05-14T08:30:08.767Z,36.40
2019-05-14T08:31:14.360Z,37.20
2019-05-14T08:32:19.230Z,37.20
2019-05-14T08:33:24.404Z,36.20
2019-05-14T08:34:48.116Z,36.50
2019-05-14T08:35:53.304Z,37.60
2019-05-14T08:36:58.891Z,36.60
2019-05-14T08:38:08.333Z,36.80
2019-05-14T08:39:10.209Z,35.70
2019-05-14T08:40:17.220Z,36.40
2019-05-14T08:41:21.458Z,36.40
2019-05-14T08:42:26.353Z,36.50
2019-05-14T08:43:30.679Z,37.40
2019-05-14T08:44:35.591Z,38.10
2019-05-14T08:45:39.941Z,38.10
2019-05-14T08:46:45.314Z,38.20
2019-05-14T08:47:49.818Z,39.20
2019-05-14T08:48:54.671Z,40.70
2019-05-14T08:49:59.955Z,41.10
2019-05-14T08:51:05.518Z,42.70
2019-05-14T08:52:09.901Z,42.20
2019-05-14T08:53:15.397Z,44.20
2019-05-14T08:54:20.007Z,44.00
2019-05-14T08:55:24.909Z,44.80
2019-05-14T08:56:29.328Z,44.90
2019-05-14T08:57:34.342Z,45.80
2019-05-14T08:58:38.989Z,46.80
2019-05-14T08:59:43.986Z,47.50
2019-05-14T09:00:48.521Z,47.70
2019-05-14T09:02:02.371Z,47.90
2019-05-14T09:03:03.032Z,47.40
2019-05-14T09:04:08.823Z,47.30
2019-05-14T09:05:12.980Z,47.90
2019-05-14T09:06:18.557Z,47.40
2019-05-14T09:07:23.313Z,45.90
2019-05-14T09:08:30.082Z,43.10
2019-05-14T09:09:34.469Z,40.90
2019-05-14T09:10:40.199Z,40.40
2019-05-14T09:11:46.420Z,40.80
2019-05-14T09:12:51.533Z,42.90
2019-05-14T09:13:55.927Z,44.10
2019-05-14T09:15:00.885Z,45.20
2019-05-14T09:16:05.245Z,46.70
2019-05-14T09:17:10.245Z,46.00
2019-05-14T09:18:14.762Z,47.60
2019-05-14T09:19:20.797Z,49.70
2019-05-14T09:20:25.259Z,50.10
2019-05-14T09:21:30.263Z,48.10
2019-05-14T09:22:34.633Z,43.30
2019-05-14T09:23:39.666Z,46.90
2019-05-14T09:24:44.068Z,43.20
2019-05-14T09:25:53.183Z,42.70
2019-05-14T09:26:55.143Z,43.20
2019-05-14T09:28:00.084Z,44.60
2019-05-14T09:29:18.200Z,45.80
2019-05-14T09:30:12.727Z,44.50
2019-05-14T09:32:23.813Z,44.10
2019-05-14T09:33:18.710Z,44.00
2019-05-14T09:34:34.761Z,42.20
2019-05-14T09:35:10.305Z,43.70
2019-05-14T09:35:39.158Z,42.10
2019-05-14T09:36:44.633Z,43.10
2019-05-14T09:37:51.329Z,43.20
2019-05-14T09:38:58.199Z,43.40
2019-05-14T09:40:01.613Z,43.60
2019-05-14T09:41:12.281Z,41.70
2019-05-14T09:42:13.021Z,39.80
2019-05-14T09:43:18.220Z,39.40
2019-05-14T09:44:22.680Z,39.50
2019-05-14T09:45:29.034Z,38.90
2019-05-14T09:46:35.189Z,40.20
2019-05-14T09:47:40.087Z,40.70
2019-05-14T09:48:44.541Z,42.00
2019-05-14T09:49:49.455Z,43.40
2019-05-14T09:50:53.926Z,44.70
2019-05-14T09:51:58.841Z,44.90
2019-05-14T09:53:03.170Z,45.40
2019-05-14T09:54:08.707Z,46.90
2019-05-14T09:55:13.775Z,46.80
2019-05-14T09:56:19.007Z,47.40
2019-05-14T09:57:23.583Z,47.90
2019-05-14T09:58:28.647Z,49.00
2019-05-14T09:59:32.979Z,49.50
2019-05-14T10:00:38.974Z,49.90
2019-05-14T10:01:43.635Z,50.90
2019-05-14T10:02:49.456Z,50.20
2019-05-14T10:03:54.084Z,50.80
2019-05-14T10:04:59.780Z,51.10
2019-05-14T10:06:04.358Z,51.30
2019-05-14T10:07:09.349Z,51.40
2019-05-14T10:08:14.311Z,50.10
2019-05-14T10:09:19.243Z,49.50
2019-05-14T10:10:23.580Z,48.80
2019-05-14T10:11:28.909Z,48.10
2019-05-14T10:12:39.500Z,48.00
2019-05-14T10:13:41.134Z,46.50
2019-05-14T10:14:45.673Z,47.60
2019-05-14T10:15:50.724Z,48.20
2019-05-14T10:16:58.267Z,49.00
2019-05-14T10:18:03.152Z,49.60
2019-05-14T10:19:07.748Z,50.20
2019-05-14T10:20:13.324Z,49.70
2019-05-14T10:21:18.938Z,50.60
2019-05-14T10:22:24.188Z,49.80
2019-05-14T10:23:28.673Z,48.90
2019-05-14T10:24:33.608Z,48.80
2019-05-14T10:25:41.788Z,49.50
2019-05-14T10:26:44.683Z,49.80
2019-05-14T10:27:49.118Z,49.30
2019-05-14T10:28:54.088Z,49.40
2019-05-14T10:29:58.835Z,49.60
2019-05-14T10:31:04.189Z,48.70
2019-05-14T10:32:08.905Z,48.20
2019-05-14T10:33:17.929Z,48.00
2019-05-14T10:34:21.870Z,48.00
2019-05-14T10:35:28.599Z,46.80
2019-05-14T10:36:32.957Z,46.80
2019-05-14T10:37:40.099Z,46.90
2019-05-14T10:38:44.244Z,47.00
2019-05-14T10:39:49.270Z,46.20
2019-05-14T10:40:53.724Z,47.10
2019-05-14T10:41:59.723Z,46.90
2019-05-14T10:43:04.117Z,45.60
2019-05-14T10:44:09.347Z,45.00
2019-05-14T10:45:14.701Z,45.60
2019-05-14T10:46:21.423Z,45.80
2019-05-14T10:47:25.814Z,45.20
2019-05-14T10:48:32.844Z,44.90
2019-05-14T10:49:38.625Z,45.80
2019-05-14T10:50:56.160Z,46.10
2019-05-14T10:51:50.502Z,46.40
2019-05-14T10:52:55.623Z,46.30
2019-05-14T10:54:00.109Z,46.20
2019-05-14T10:55:05.235Z,46.80
2019-05-14T10:56:11.329Z,45.70
2019-05-14T10:57:18.351Z,45.30
2019-05-14T10:58:22.574Z,46.10
2019-05-14T10:59:29.373Z,46.10
2019-05-14T11:00:35.363Z,45.10
2019-05-14T11:01:40.354Z,46.20
2019-05-14T11:02:46.426Z,45.00
2019-05-14T11:03:51.415Z,44.90
2019-05-14T11:04:55.732Z,45.00
2019-05-14T11:06:00.770Z,45.40
2019-05-14T11:07:05.176Z,45.50
2019-05-14T11:08:11.963Z,45.00
2019-05-14T11:09:18.116Z,44.60
2019-05-14T11:10:23.277Z,44.50
2019-05-14T11:11:29.050Z,45.40
2019-05-14T11:12:34.052Z,45.50
2019-05-14T11:13:39.400Z,45.90
2019-05-14T11:14:44.667Z,46.60
2019-05-14T11:15:49.591Z,46.00
2019-05-14T11:16:54.946Z,46.70
2019-05-14T11:17:59.572Z,46.80
2019-05-14T11:19:04.956Z,47.40
2019-05-14T11:20:11.715Z,47.60
2019-05-14T11:21:25.758Z,47.30
2019-05-14T11:22:23.661Z,46.70
2019-05-14T11:23:29.706Z,45.70
2019-05-14T11:24:38.308Z,46.20
2019-05-14T11:25:42.438Z,46.10
2019-05-14T11:26:48.717Z,45.80
2019-05-14T11:27:58.446Z,46.40
2019-05-14T11:29:01.984Z,46.60
2019-05-14T11:30:08.884Z,46.90
2019-05-14T11:31:13.936Z,46.70
2019-05-14T11:32:19.101Z,47.10
2019-05-14T11:33:25.435Z,44.50
2019-05-14T11:34:30.464Z,45.40
2019-05-14T11:35:34.957Z,45.80
2019-05-14T11:36:39.886Z,45.60
2019-05-14T11:37:44.291Z,45.40
2019-05-14T11:38:50.607Z,45.00
2019-05-14T11:39:57.961Z,45.90
2019-05-14T11:41:02.869Z,46.20
2019-05-14T11:42:08.486Z,45.80
2019-05-14T11:43:14.178Z,45.70
2019-05-14T11:44:18.728Z,45.30
2019-05-14T11:45:23.997Z,44.40
2019-05-14T11:46:42.289Z,45.30
2019-05-14T11:47:34.972Z,45.10
2019-05-14T11:48:39.528Z,45.50
2019-05-14T11:49:44.591Z,45.90
2019-05-14T11:50:49.465Z,45.60
2019-05-14T11:52:04.226Z,45.50
2019-05-14T11:53:00.796Z,45.60
2019-05-14T11:54:05.816Z,45.30
2019-05-14T11:55:12.473Z,44.80
2019-05-14T11:56:19.492Z,43.60
2019-05-14T11:57:25.341Z,43.40
2019-05-14T11:58:30.683Z,43.90
2019-05-14T11:59:35.101Z,43.60
2019-05-14T12:00:40.062Z,43.40
2019-05-14T12:01:44.550Z,43.10
2019-05-14T12:02:49.698Z,43.00
2019-05-14T12:03:55.463Z,43.60
2019-05-14T12:05:00.430Z,43.30
2019-05-14T12:06:05.113Z,43.20
2019-05-14T12:07:13.218Z,42.50
2019-05-14T12:08:18.526Z,43.40
2019-05-14T12:09:23.722Z,42.40
2019-05-14T12:10:29.272Z,43.40
2019-05-14T12:11:34.289Z,43.30
2019-05-14T12:12:38.644Z,43.70
2019-05-14T12:13:43.650Z,43.70
2019-05-14T12:14:48.453Z,43.60
2019-05-14T12:15:53.626Z,43.40
2019-05-14T12:16:59.925Z,42.40
2019-05-14T12:18:04.754Z,42.90
2019-05-14T12:19:11.939Z,43.20
2019-05-14T12:20:16.407Z,44.10
2019-05-14T12:21:20.930Z,43.10
2019-05-14T12:22:28.425Z,43.40
2019-05-14T12:23:31.988Z,43.00
2019-05-14T12:24:38.732Z,43.00
2019-05-14T12:25:43.274Z,42.70
2019-05-14T12:26:49.077Z,43.00
2019-05-14T12:27:53.812Z,42.30
2019-05-14T12:28:59.468Z,42.30
2019-05-14T12:30:04.557Z,42.50
2019-05-14T12:31:09.704Z,43.10
2019-05-14T12:32:14.329Z,43.30
2019-05-14T12:33:19.876Z,44.00
2019-05-14T12:34:29.234Z,43.70
2019-05-14T12:35:32.905Z,44.00
2019-05-14T12:36:38.925Z,44.10
2019-05-14T12:37:44.043Z,44.70
2019-05-14T12:38:48.529Z,44.30
2019-05-14T12:39:53.409Z,45.10
2019-05-14T12:40:58.547Z,43.30
2019-05-14T12:42:03.584Z,42.90
2019-05-14T12:43:09.617Z,41.70
2019-05-14T12:44:14.939Z,42.10
2019-05-14T12:45:19.632Z,42.00
2019-05-14T12:46:24.593Z,41.90
2019-05-14T12:47:29.167Z,42.00
2019-05-14T12:48:38.651Z,41.00
2019-05-14T12:49:42.104Z,40.30
2019-05-14T12:50:48.860Z,39.60
2019-05-14T12:51:53.252Z,41.50
2019-05-14T12:52:58.838Z,41.60
2019-05-14T12:54:03.374Z,41.70
2019-05-14T12:55:10.263Z,41.50
2019-05-14T12:56:14.900Z,42.30
2019-05-14T12:57:19.821Z,42.40
2019-05-14T12:58:24.230Z,42.20
2019-05-14T12:59:29.112Z,41.80
2019-05-14T13:00:33.735Z,41.20
2019-05-14T13:01:38.820Z,40.60
2019-05-14T13:02:43.240Z,40.90
2019-05-14T13:03:48.580Z,41.00
2019-05-14T13:04:53.164Z,40.70
2019-05-14T13:05:59.284Z,39.50
2019-05-14T13:07:03.717Z,38.90
2019-05-14T13:08:11.466Z,38.50
2019-05-14T13:09:18.147Z,38.90
2019-05-14T13:10:21.766Z,39.60
2019-05-14T13:11:26.083Z,40.00
2019-05-14T13:12:31.024Z,40.70
2019-05-14T13:13:35.402Z,42.00
2019-05-14T13:14:40.350Z,40.60
2019-05-14T13:15:44.713Z,41.60
2019-05-14T13:16:49.681Z,41.70
2019-05-14T13:17:54.054Z,41.10
2019-05-14T13:18:59.886Z,41.40
2019-05-14T13:20:04.888Z,41.70
2019-05-14T13:21:29.175Z,41.90
2019-05-14T13:22:42.335Z,41.90
2019-05-14T13:23:40.620Z,41.80
2019-05-14T13:24:45.081Z,40.50
2019-05-14T13:25:50.145Z,41.30
2019-05-14T13:26:54.597Z,41.60
2019-05-14T13:27:59.603Z,40.50
2019-05-14T13:29:07.481Z,40.20
2019-05-14T13:30:11.446Z,40.80
2019-05-14T13:31:18.389Z,41.10
2019-05-14T13:32:22.908Z,41.10
2019-05-14T13:33:28.491Z,41.00
2019-05-14T13:34:33.736Z,40.70
2019-05-14T13:35:38.898Z,40.20
2019-05-14T13:36:45.043Z,40.10
2019-05-14T13:37:49.765Z,39.30
2019-05-14T13:38:54.682Z,39.70
2019-05-14T13:39:59.322Z,39.30
2019-05-14T13:41:04.467Z,39.30
2019-05-14T13:42:11.885Z,39.60
2019-05-14T13:43:18.832Z,39.00
2019-05-14T13:44:25.134Z,39.60
2019-05-14T13:45:30.639Z,39.50
2019-05-14T13:46:35.351Z,39.70
2019-05-14T13:47:40.291Z,39.30
2019-05-14T13:48:45.786Z,39.80
2019-05-14T13:49:51.221Z,38.80
2019-05-14T13:50:55.674Z,38.70
2019-05-14T13:52:02.009Z,39.10
2019-05-14T13:53:09.433Z,39.40
2019-05-14T13:54:13.483Z,39.40
2019-05-14T13:55:19.394Z,40.00
2019-05-14T13:56:24.691Z,40.70
2019-05-14T13:57:31.114Z,40.80
2019-05-14T13:58:36.148Z,41.20
2019-05-14T13:59:44.093Z,41.50
2019-05-14T14:00:51.515Z,41.30
2019-05-14T14:01:55.037Z,40.60
2019-05-14T14:03:00.294Z,40.50
2019-05-14T14:04:11.583Z,41.00